LIC0032 GCLA-LEBA
Flight info
| Callsign | LIC0032 |
|---|---|
| Flight time | N/A |
| Altitude | 38000 |
| Route | KORAL UG5 SONSO DCT ADUBI N871 VJF N10 SVL N747 AMOTA |
| Aircraft | A320/M-SDE3FGHIRWY/LB1 |
Departure
| Time | 2026-05-07 09:24 |
|---|---|
| Airport | La Palma Airport (GCLA) |
Arrival
| Time | N/A |
|---|---|
| Airport | Córdoba Airport (LEBA) |
| Time | Latitude | Longitude | Altitude | Speed | Heading |
|---|---|---|---|---|---|
| 2026-05-07 09:09 | 28.62201 | -17.75361 | 105 ft | 0 kts | 90° |
| 2026-05-07 09:17 | 28.62201 | -17.75373 | 105 ft | 2 kts | 90° |
| 2026-05-07 09:18 | 28.62201 | -17.75392 | 105 ft | 2 kts | 90° |
| 2026-05-07 09:18 | 28.62201 | -17.75412 | 105 ft | 3 kts | 106° |
| 2026-05-07 09:18 | 28.62208 | -17.75430 | 104 ft | 3 kts | 142° |
| 2026-05-07 09:18 | 28.62225 | -17.75439 | 104 ft | 2 kts | 179° |
| 2026-05-07 09:19 | 28.62226 | -17.75439 | 104 ft | 0 kts | 179° |
| 2026-05-07 09:20 | 28.62214 | -17.75438 | 104 ft | 7 kts | 178° |
| 2026-05-07 09:20 | 28.62166 | -17.75437 | 106 ft | 6 kts | 180° |
| 2026-05-07 09:21 | 28.62119 | -17.75441 | 105 ft | 9 kts | 196° |
| 2026-05-07 09:21 | 28.62087 | -17.75504 | 108 ft | 12 kts | 261° |
| 2026-05-07 09:21 | 28.62011 | -17.75546 | 109 ft | 15 kts | 179° |
| 2026-05-07 09:21 | 28.61878 | -17.75544 | 111 ft | 24 kts | 179° |
| 2026-05-07 09:22 | 28.61754 | -17.75553 | 113 ft | 14 kts | 192° |
| 2026-05-07 09:22 | 28.61683 | -17.75577 | 113 ft | 7 kts | 173° |
| 2026-05-07 09:22 | 28.61671 | -17.75542 | 113 ft | 4 kts | 49° |
| 2026-05-07 09:22 | 28.61696 | -17.75541 | 113 ft | 3 kts | 359° |
| 2026-05-07 09:23 | 28.61716 | -17.75542 | 113 ft | 22 kts | 359° |
| 2026-05-07 09:24 | 28.62168 | -17.75557 | 107 ft | 105 kts | 359° |
| 2026-05-07 09:24 | 28.63119 | -17.75570 | 153 ft | 159 kts | 357° |
| 2026-05-07 09:24 | 28.64208 | -17.75513 | 900 ft | 158 kts | 7° |
| 2026-05-07 09:24 | 28.65205 | -17.75004 | 1637 ft | 162 kts | 42° |
| 2026-05-07 09:25 | 28.65860 | -17.73882 | 2116 ft | 185 kts | 73° |
| 2026-05-07 09:25 | 28.65972 | -17.72323 | 2663 ft | 207 kts | 87° |
| 2026-05-07 09:25 | 28.65990 | -17.70661 | 3633 ft | 213 kts | 87° |
| 2026-05-07 09:25 | 28.66011 | -17.68938 | 4539 ft | 222 kts | 86° |
| 2026-05-07 09:26 | 28.66355 | -17.67229 | 5359 ft | 231 kts | 62° |
| 2026-05-07 09:26 | 28.67303 | -17.65732 | 6196 ft | 237 kts | 47° |
| 2026-05-07 09:26 | 28.68420 | -17.64233 | 6735 ft | 261 kts | 47° |
| 2026-05-07 09:26 | 28.69610 | -17.62549 | 7297 ft | 283 kts | 56° |
| 2026-05-07 09:27 | 28.70377 | -17.60449 | 8157 ft | 293 kts | 77° |
| 2026-05-07 09:27 | 28.70459 | -17.58111 | 9122 ft | 300 kts | 96° |
| 2026-05-07 09:27 | 28.69857 | -17.53280 | 10604 ft | 326 kts | 97° |
| 2026-05-07 09:28 | 28.69521 | -17.50635 | 11014 ft | 347 kts | 97° |
| 2026-05-07 09:28 | 28.69172 | -17.47869 | 11713 ft | 357 kts | 98° |
| 2026-05-07 09:28 | 28.68823 | -17.45087 | 12507 ft | 363 kts | 98° |
| 2026-05-07 09:28 | 28.68466 | -17.42213 | 13300 ft | 370 kts | 98° |
| 2026-05-07 09:29 | 28.68108 | -17.39288 | 14052 ft | 376 kts | 98° |
| 2026-05-07 09:29 | 28.67744 | -17.36315 | 14724 ft | 382 kts | 98° |
| 2026-05-07 09:29 | 28.67373 | -17.33300 | 15414 ft | 387 kts | 98° |
| 2026-05-07 09:29 | 28.66994 | -17.30243 | 16100 ft | 392 kts | 99° |
| 2026-05-07 09:30 | 28.66608 | -17.27145 | 16784 ft | 398 kts | 99° |
| 2026-05-07 09:30 | 28.66212 | -17.24009 | 17445 ft | 403 kts | 99° |
| 2026-05-07 09:30 | 28.65815 | -17.20877 | 18120 ft | 408 kts | 99° |
| 2026-05-07 09:30 | 28.65409 | -17.17662 | 18734 ft | 413 kts | 99° |
| 2026-05-07 09:31 | 28.65000 | -17.14414 | 19330 ft | 417 kts | 99° |
| 2026-05-07 09:31 | 28.64587 | -17.11132 | 19950 ft | 421 kts | 99° |
| 2026-05-07 09:31 | 28.64166 | -17.07814 | 20573 ft | 425 kts | 99° |
| 2026-05-07 09:31 | 28.63739 | -17.04469 | 21198 ft | 429 kts | 100° |
| 2026-05-07 09:32 | 28.63311 | -17.01132 | 21805 ft | 434 kts | 100° |
| 2026-05-07 09:32 | 28.62871 | -16.97675 | 22426 ft | 438 kts | 100° |
| 2026-05-07 09:32 | 28.62434 | -16.94230 | 23030 ft | 442 kts | 100° |
| 2026-05-07 09:32 | 28.61990 | -16.90751 | 23611 ft | 446 kts | 100° |
| 2026-05-07 09:33 | 28.61549 | -16.87285 | 24084 ft | 450 kts | 100° |
| 2026-05-07 09:33 | 28.61100 | -16.83742 | 24558 ft | 454 kts | 100° |
| 2026-05-07 09:33 | 28.60648 | -16.80177 | 25026 ft | 457 kts | 99° |
| 2026-05-07 09:33 | 28.60191 | -16.76588 | 25487 ft | 460 kts | 99° |
| 2026-05-07 09:34 | 28.59727 | -16.72969 | 25934 ft | 463 kts | 99° |
| 2026-05-07 09:34 | 28.59256 | -16.69335 | 26380 ft | 466 kts | 99° |
| 2026-05-07 09:34 | 28.58778 | -16.65677 | 26816 ft | 469 kts | 99° |
| 2026-05-07 09:34 | 28.58295 | -16.61990 | 27246 ft | 472 kts | 99° |
| 2026-05-07 09:35 | 28.57812 | -16.58291 | 27685 ft | 475 kts | 99° |
| 2026-05-07 09:35 | 28.57325 | -16.54564 | 28105 ft | 478 kts | 99° |
| 2026-05-07 09:35 | 28.56843 | -16.50865 | 28524 ft | 480 kts | 99° |
| 2026-05-07 09:35 | 28.56352 | -16.47094 | 28920 ft | 483 kts | 99° |
| 2026-05-07 09:36 | 28.55856 | -16.43306 | 29309 ft | 486 kts | 99° |
| 2026-05-07 09:36 | 28.55355 | -16.39496 | 29688 ft | 489 kts | 99° |
| 2026-05-07 09:36 | 28.54847 | -16.35663 | 30057 ft | 491 kts | 99° |
| 2026-05-07 09:36 | 28.54347 | -16.31813 | 30381 ft | 494 kts | 97° |
| 2026-05-07 09:37 | 28.54172 | -16.27902 | 30673 ft | 496 kts | 88° |
| 2026-05-07 09:37 | 28.54496 | -16.23995 | 30956 ft | 497 kts | 78° |
| 2026-05-07 09:37 | 28.55289 | -16.20164 | 31243 ft | 498 kts | 72° |
| 2026-05-07 09:37 | 28.56196 | -16.16415 | 31524 ft | 500 kts | 72° |
| 2026-05-07 09:38 | 28.57113 | -16.12593 | 31819 ft | 501 kts | 72° |
| 2026-05-07 09:38 | 28.58021 | -16.08778 | 32187 ft | 500 kts | 72° |
| 2026-05-07 09:38 | 28.58923 | -16.04958 | 32558 ft | 499 kts | 72° |
| 2026-05-07 09:38 | 28.59822 | -16.01146 | 32930 ft | 498 kts | 72° |
| 2026-05-07 09:39 | 28.60723 | -15.97341 | 33307 ft | 497 kts | 72° |
| 2026-05-07 09:39 | 28.61624 | -15.93545 | 33688 ft | 496 kts | 72° |
| 2026-05-07 09:39 | 28.62524 | -15.89756 | 34071 ft | 496 kts | 72° |
| 2026-05-07 09:39 | 28.63418 | -15.85972 | 34408 ft | 495 kts | 71° |
| 2026-05-07 09:40 | 28.64298 | -15.82242 | 34749 ft | 494 kts | 71° |
| 2026-05-07 09:40 | 28.65186 | -15.78473 | 35082 ft | 493 kts | 71° |
| 2026-05-07 09:40 | 28.66071 | -15.74705 | 35413 ft | 492 kts | 71° |
| 2026-05-07 09:40 | 28.66953 | -15.70945 | 35721 ft | 491 kts | 71° |
| 2026-05-07 09:41 | 28.67834 | -15.67193 | 36032 ft | 490 kts | 71° |
| 2026-05-07 09:41 | 28.68715 | -15.63443 | 36335 ft | 489 kts | 71° |
| 2026-05-07 09:41 | 28.69591 | -15.59705 | 36633 ft | 488 kts | 71° |
| 2026-05-07 09:41 | 28.70466 | -15.55968 | 36922 ft | 488 kts | 71° |
| 2026-05-07 09:42 | 28.71324 | -15.52289 | 37208 ft | 487 kts | 71° |
| 2026-05-07 09:42 | 28.72189 | -15.48573 | 37487 ft | 486 kts | 71° |
| 2026-05-07 09:42 | 28.73054 | -15.44844 | 37762 ft | 486 kts | 71° |
| 2026-05-07 09:42 | 28.73916 | -15.41126 | 38009 ft | 485 kts | 71° |
| 2026-05-07 09:43 | 28.74779 | -15.37411 | 38075 ft | 485 kts | 71° |
| 2026-05-07 09:43 | 28.76503 | -15.29995 | 38074 ft | 484 kts | 71° |
| 2026-05-07 09:44 | 28.78214 | -15.22586 | 38068 ft | 483 kts | 71° |
| 2026-05-07 09:44 | 28.79910 | -15.15231 | 38070 ft | 483 kts | 71° |
| 2026-05-07 09:45 | 28.81614 | -15.07819 | 38071 ft | 483 kts | 71° |
| 2026-05-07 09:45 | 28.83310 | -15.00406 | 38076 ft | 483 kts | 71° |
| 2026-05-07 09:46 | 28.85006 | -14.92992 | 38077 ft | 483 kts | 71° |
| 2026-05-07 09:46 | 28.86686 | -14.85621 | 38080 ft | 483 kts | 71° |
| 2026-05-07 09:47 | 28.88378 | -14.78196 | 38082 ft | 483 kts | 71° |
| 2026-05-07 09:47 | 28.90068 | -14.70776 | 38085 ft | 483 kts | 71° |
| 2026-05-07 09:48 | 28.91751 | -14.63346 | 38086 ft | 483 kts | 71° |
| 2026-05-07 09:48 | 28.93415 | -14.55969 | 38085 ft | 483 kts | 71° |
| 2026-05-07 09:49 | 28.95085 | -14.48544 | 38085 ft | 483 kts | 71° |
| 2026-05-07 09:49 | 28.96749 | -14.41113 | 38085 ft | 483 kts | 72° |
| 2026-05-07 09:50 | 28.98396 | -14.33741 | 38089 ft | 483 kts | 72° |
| 2026-05-07 09:50 | 29.00047 | -14.26362 | 38088 ft | 483 kts | 72° |
| 2026-05-07 09:51 | 29.01709 | -14.18931 | 38089 ft | 483 kts | 72° |
| 2026-05-07 09:51 | 29.03360 | -14.11492 | 38089 ft | 483 kts | 72° |
| 2026-05-07 09:52 | 29.05003 | -14.04058 | 38086 ft | 483 kts | 72° |
| 2026-05-07 09:52 | 29.06636 | -13.96673 | 38083 ft | 482 kts | 72° |
| 2026-05-07 09:53 | 29.08276 | -13.89237 | 38074 ft | 482 kts | 72° |
| 2026-05-07 09:53 | 29.09908 | -13.81804 | 38067 ft | 482 kts | 72° |
| 2026-05-07 09:54 | 29.11532 | -13.74369 | 38066 ft | 482 kts | 72° |
| 2026-05-07 09:54 | 29.13151 | -13.66931 | 38065 ft | 482 kts | 72° |
| 2026-05-07 09:55 | 29.14762 | -13.59549 | 38065 ft | 481 kts | 72° |
| 2026-05-07 09:55 | 29.16594 | -13.52211 | 38067 ft | 476 kts | 63° |
| 2026-05-07 09:56 | 29.19878 | -13.45754 | 38078 ft | 467 kts | 50° |
| 2026-05-07 09:56 | 29.23617 | -13.39667 | 38076 ft | 467 kts | 50° |
| 2026-05-07 09:57 | 29.27326 | -13.33554 | 38079 ft | 468 kts | 50° |
| 2026-05-07 09:57 | 29.31022 | -13.27482 | 38080 ft | 468 kts | 50° |
| 2026-05-07 09:58 | 29.34752 | -13.21382 | 38078 ft | 468 kts | 50° |
| 2026-05-07 09:58 | 29.38479 | -13.15269 | 38077 ft | 468 kts | 50° |
| 2026-05-07 09:59 | 29.42191 | -13.09145 | 38080 ft | 468 kts | 51° |
| 2026-05-07 09:59 | 29.45879 | -13.03061 | 38079 ft | 467 kts | 50° |
| 2026-05-07 10:00 | 29.49592 | -12.96943 | 38077 ft | 467 kts | 51° |
| 2026-05-07 10:00 | 29.53297 | -12.90812 | 38071 ft | 467 kts | 51° |
| 2026-05-07 10:01 | 29.56998 | -12.84676 | 38076 ft | 467 kts | 51° |
| 2026-05-07 10:01 | 29.60677 | -12.78586 | 38072 ft | 467 kts | 51° |
| 2026-05-07 10:02 | 29.64379 | -12.72450 | 38077 ft | 467 kts | 51° |
| 2026-05-07 10:02 | 29.68078 | -12.66297 | 38066 ft | 468 kts | 51° |
| 2026-05-07 10:03 | 29.71769 | -12.60128 | 38070 ft | 468 kts | 51° |
| 2026-05-07 10:03 | 29.75432 | -12.54001 | 38076 ft | 468 kts | 51° |
| 2026-05-07 10:04 | 29.79091 | -12.47815 | 38081 ft | 468 kts | 51° |
| 2026-05-07 10:04 | 29.82744 | -12.41610 | 38078 ft | 468 kts | 51° |
| 2026-05-07 10:05 | 29.86402 | -12.35407 | 38077 ft | 468 kts | 51° |
| 2026-05-07 10:05 | 29.90067 | -12.29211 | 38070 ft | 468 kts | 51° |
| 2026-05-07 10:06 | 29.93728 | -12.22991 | 38060 ft | 469 kts | 52° |
| 2026-05-07 10:06 | 29.97354 | -12.16806 | 38057 ft | 469 kts | 52° |
| 2026-05-07 10:07 | 30.01170 | -12.10717 | 38056 ft | 465 kts | 43° |
| 2026-05-07 10:07 | 30.05982 | -12.05861 | 38058 ft | 459 kts | 33° |
| 2026-05-07 10:08 | 30.10995 | -12.01293 | 38051 ft | 459 kts | 33° |
| 2026-05-07 10:08 | 30.16009 | -11.96711 | 38050 ft | 460 kts | 33° |
| 2026-05-07 10:09 | 30.21030 | -11.92112 | 38051 ft | 461 kts | 33° |
| 2026-05-07 10:09 | 30.26051 | -11.87500 | 38058 ft | 461 kts | 33° |
| 2026-05-07 10:10 | 30.31047 | -11.82922 | 38053 ft | 461 kts | 33° |
| 2026-05-07 10:10 | 30.36086 | -11.78304 | 38053 ft | 462 kts | 33° |
| 2026-05-07 10:11 | 30.41120 | -11.73681 | 38050 ft | 462 kts | 33° |
| 2026-05-07 10:11 | 30.46158 | -11.69033 | 38053 ft | 463 kts | 33° |
| 2026-05-07 10:12 | 30.51163 | -11.64410 | 38055 ft | 463 kts | 33° |
| 2026-05-07 10:12 | 30.56203 | -11.59754 | 38052 ft | 464 kts | 33° |
| 2026-05-07 10:13 | 30.61244 | -11.55087 | 38043 ft | 464 kts | 33° |
| 2026-05-07 10:13 | 30.66292 | -11.50411 | 38041 ft | 464 kts | 33° |
| 2026-05-07 10:14 | 30.71340 | -11.45729 | 38041 ft | 464 kts | 33° |
| 2026-05-07 10:14 | 30.76386 | -11.41043 | 38042 ft | 465 kts | 33° |
| 2026-05-07 10:15 | 30.81404 | -11.36381 | 38037 ft | 465 kts | 33° |
| 2026-05-07 10:15 | 30.86450 | -11.31677 | 38038 ft | 465 kts | 33° |
| 2026-05-07 10:16 | 30.91507 | -11.26964 | 38039 ft | 466 kts | 33° |
| 2026-05-07 10:16 | 30.96560 | -11.22242 | 38030 ft | 466 kts | 33° |
| 2026-05-07 10:17 | 31.01617 | -11.17513 | 38031 ft | 466 kts | 33° |
| 2026-05-07 10:17 | 31.06652 | -11.12805 | 38032 ft | 467 kts | 33° |
| 2026-05-07 10:18 | 31.11719 | -11.08060 | 38034 ft | 467 kts | 34° |
| 2026-05-07 10:18 | 31.16780 | -11.03294 | 38034 ft | 468 kts | 34° |
| 2026-05-07 10:19 | 31.21851 | -10.98521 | 38037 ft | 468 kts | 34° |
| 2026-05-07 10:19 | 31.26928 | -10.93742 | 38041 ft | 469 kts | 34° |
| 2026-05-07 10:20 | 31.32003 | -10.88954 | 38035 ft | 469 kts | 34° |
| 2026-05-07 10:20 | 31.37047 | -10.84188 | 38037 ft | 470 kts | 34° |
| 2026-05-07 10:21 | 31.42132 | -10.79384 | 38036 ft | 470 kts | 34° |
| 2026-05-07 10:21 | 31.47218 | -10.74565 | 38040 ft | 470 kts | 34° |
| 2026-05-07 10:22 | 31.52307 | -10.69736 | 38038 ft | 471 kts | 34° |
| 2026-05-07 10:22 | 31.57366 | -10.64929 | 38039 ft | 471 kts | 34° |
| 2026-05-07 10:23 | 31.62454 | -10.60082 | 38032 ft | 471 kts | 34° |
| 2026-05-07 10:23 | 31.67235 | -10.55523 | 38028 ft | 472 kts | 34° |
| 2026-05-07 10:24 | 31.72386 | -10.50611 | 38030 ft | 472 kts | 34° |
| 2026-05-07 10:24 | 31.77483 | -10.45749 | 38031 ft | 473 kts | 34° |
| 2026-05-07 10:25 | 31.82596 | -10.40863 | 38036 ft | 474 kts | 34° |
| 2026-05-07 10:25 | 31.87676 | -10.35997 | 38044 ft | 474 kts | 34° |
| 2026-05-07 10:26 | 31.92793 | -10.31091 | 38044 ft | 475 kts | 34° |
| 2026-05-07 10:26 | 31.97913 | -10.26166 | 38046 ft | 475 kts | 34° |
| 2026-05-07 10:27 | 32.03025 | -10.21237 | 38042 ft | 475 kts | 34° |
| 2026-05-07 10:27 | 32.08140 | -10.16298 | 38038 ft | 475 kts | 34° |
| 2026-05-07 10:28 | 32.13221 | -10.11393 | 38042 ft | 476 kts | 34° |
| 2026-05-07 10:28 | 32.18341 | -10.06437 | 38044 ft | 476 kts | 34° |
| 2026-05-07 10:29 | 32.23460 | -10.01480 | 38044 ft | 476 kts | 34° |
| 2026-05-07 10:29 | 32.28582 | -9.96523 | 38041 ft | 476 kts | 34° |
| 2026-05-07 10:30 | 32.36232 | -9.89093 | 38046 ft | 477 kts | 34° |
| 2026-05-07 10:30 | 32.41381 | -9.84066 | 38043 ft | 477 kts | 35° |
| 2026-05-07 10:31 | 32.46461 | -9.79106 | 38043 ft | 477 kts | 35° |
| 2026-05-07 10:31 | 32.51585 | -9.74108 | 38036 ft | 477 kts | 35° |
| 2026-05-07 10:32 | 32.56703 | -9.69108 | 38035 ft | 477 kts | 35° |
| 2026-05-07 10:32 | 32.61825 | -9.64093 | 38033 ft | 478 kts | 35° |